createdAt,value
2019-03-03T00:00:38.152Z,11.02
2019-03-03T00:01:38.143Z,11.02
2019-03-03T00:02:38.139Z,11.03
2019-03-03T00:03:38.131Z,11.02
2019-03-03T00:04:38.128Z,10.99
2019-03-03T00:05:38.269Z,10.92
2019-03-03T00:06:38.114Z,10.96
2019-03-03T00:07:38.106Z,10.97
2019-03-03T00:08:38.103Z,10.96
2019-03-03T00:09:38.094Z,11.00
2019-03-03T00:11:25.508Z,10.96
2019-03-03T00:12:25.502Z,10.96
2019-03-03T00:13:25.493Z,10.91
2019-03-03T00:14:25.490Z,10.91
2019-03-03T00:15:25.483Z,10.91
2019-03-03T00:16:25.481Z,10.96
2019-03-03T00:17:25.479Z,10.94
2019-03-03T00:18:25.485Z,10.88
2019-03-03T00:19:25.482Z,10.96
2019-03-03T00:20:25.453Z,10.92
2019-03-03T00:21:25.448Z,10.91
2019-03-03T00:22:25.441Z,10.86
2019-03-03T00:23:25.432Z,10.92
2019-03-03T00:24:25.429Z,10.94
2019-03-03T00:25:25.426Z,10.92
2019-03-03T00:26:25.430Z,10.91
2019-03-03T00:27:25.409Z,10.96
2019-03-03T00:28:28.028Z,10.91
2019-03-03T00:29:25.395Z,10.94
2019-03-03T00:30:25.405Z,10.88
2019-03-03T00:31:25.383Z,11.00
2019-03-03T00:32:25.378Z,10.97
2019-03-03T00:33:25.370Z,10.96
2019-03-03T00:34:25.366Z,10.97
2019-03-03T00:35:25.358Z,11.00
2019-03-03T00:36:25.355Z,11.00
2019-03-03T00:37:25.349Z,11.03
2019-03-03T00:38:25.343Z,11.02
2019-03-03T00:39:25.333Z,11.03
2019-03-03T00:40:25.329Z,11.09
2019-03-03T00:41:25.320Z,11.03
2019-03-03T00:42:25.316Z,10.96
2019-03-03T00:43:25.308Z,10.97
2019-03-03T00:44:25.305Z,11.00
2019-03-03T00:45:25.296Z,11.04
2019-03-03T00:46:25.291Z,11.06
2019-03-03T00:47:25.287Z,11.06
2019-03-03T00:48:25.278Z,11.02
2019-03-03T00:49:25.271Z,11.04
2019-03-03T00:50:25.266Z,11.03
2019-03-03T00:51:25.259Z,11.15
2019-03-03T00:52:25.254Z,11.10
2019-03-03T00:53:25.248Z,11.15
2019-03-03T00:54:25.243Z,11.14
2019-03-03T00:55:25.235Z,11.15
2019-03-03T01:01:26.609Z,11.15
2019-03-03T01:02:26.604Z,11.15
2019-03-03T02:40:13.994Z,11.28
2019-03-03T02:59:09.118Z,11.28
2019-03-03T03:00:09.114Z,11.21
2019-03-03T03:01:09.104Z,11.19
2019-03-03T03:02:09.118Z,11.19
2019-03-03T03:03:09.091Z,11.37
2019-03-03T03:04:09.087Z,11.27
2019-03-03T03:05:09.077Z,11.33
2019-03-03T03:06:09.074Z,11.35
2019-03-03T03:07:09.067Z,11.28
2019-03-03T03:08:09.064Z,11.27
2019-03-03T03:09:09.054Z,11.18
2019-03-03T03:10:09.053Z,11.25
2019-03-03T03:11:09.041Z,11.22
2019-03-03T03:12:09.042Z,11.19
2019-03-03T03:13:09.028Z,11.14
2019-03-03T03:14:09.026Z,11.19
2019-03-03T03:15:09.022Z,11.11
2019-03-03T03:16:09.013Z,11.27
2019-03-03T03:17:09.005Z,11.14
2019-03-03T03:18:09.000Z,11.24
2019-03-03T03:19:08.991Z,11.14
2019-03-03T03:20:08.990Z,11.15
2019-03-03T03:21:08.977Z,11.22
2019-03-03T03:22:08.975Z,11.14
2019-03-03T03:23:08.994Z,11.14
2019-03-03T03:24:08.967Z,11.11
2019-03-03T03:25:08.954Z,11.10
2019-03-03T03:26:08.949Z,11.17
2019-03-03T03:27:08.941Z,11.15
2019-03-03T03:28:08.942Z,11.17
2019-03-03T03:29:09.179Z,11.19
2019-03-03T03:30:08.928Z,11.11
2019-03-03T03:31:08.917Z,11.17
2019-03-03T03:32:08.919Z,11.10
2019-03-03T03:33:08.903Z,11.15
2019-03-03T03:34:08.926Z,11.15
2019-03-03T03:35:08.892Z,11.15
2019-03-03T03:36:08.886Z,11.14
2019-03-03T03:37:08.886Z,11.18
2019-03-03T03:38:08.876Z,11.19
2019-03-03T03:39:08.867Z,11.15
2019-03-03T03:40:08.869Z,11.14
2019-03-03T03:41:08.857Z,11.25
2019-03-03T03:42:08.853Z,11.21
2019-03-03T03:43:08.842Z,11.22
2019-03-03T03:44:08.840Z,11.22
2019-03-03T03:45:08.829Z,11.21
2019-03-03T03:46:08.826Z,11.21
2019-03-03T03:47:08.817Z,11.32
2019-03-03T03:48:08.813Z,11.24
2019-03-03T03:49:08.803Z,11.19
2019-03-03T03:50:08.801Z,11.33
2019-03-03T03:51:08.791Z,11.33
2019-03-03T03:52:08.787Z,11.27
2019-03-03T03:53:08.779Z,11.25
2019-03-03T03:54:08.774Z,11.29
2019-03-03T03:55:08.782Z,11.35
2019-03-03T03:56:08.773Z,11.27
2019-03-03T03:57:08.761Z,11.32
2019-03-03T03:58:08.764Z,11.28
2019-03-03T03:59:08.747Z,11.32
2019-03-03T04:01:06.176Z,11.39
2019-03-03T04:02:06.169Z,11.40
2019-03-03T04:03:06.164Z,11.33
2019-03-03T04:05:38.654Z,11.32
2019-03-03T04:06:38.661Z,11.36
2019-03-03T04:07:38.646Z,11.37
2019-03-03T04:08:38.637Z,11.35
2019-03-03T04:09:38.630Z,11.35
2019-03-03T04:10:38.624Z,11.24
2019-03-03T04:11:38.617Z,11.28
2019-03-03T04:12:38.613Z,11.28
2019-03-03T04:13:38.607Z,11.32
2019-03-03T04:14:38.601Z,11.35
2019-03-03T04:15:38.597Z,11.35
2019-03-03T04:16:38.592Z,11.33
2019-03-03T04:17:38.582Z,11.27
2019-03-03T04:18:38.576Z,11.36
2019-03-03T04:19:38.651Z,11.27
2019-03-03T04:20:38.563Z,11.46
2019-03-03T04:21:38.560Z,11.35
2019-03-03T04:22:38.551Z,11.36
2019-03-03T04:23:38.543Z,11.37
2019-03-03T04:24:38.539Z,11.33
2019-03-03T04:25:38.532Z,11.36
2019-03-03T04:26:38.527Z,11.33
2019-03-03T04:27:38.517Z,11.37
2019-03-03T04:28:38.514Z,11.33
2019-03-03T04:32:09.196Z,11.36
2019-03-03T04:33:09.191Z,11.35
2019-03-03T04:34:09.184Z,11.36
2019-03-03T04:35:09.180Z,11.40
2019-03-03T04:36:09.175Z,11.33
2019-03-03T04:37:09.168Z,11.37
2019-03-03T04:38:09.159Z,11.32
2019-03-03T04:39:09.155Z,11.37
2019-03-03T04:40:09.168Z,11.35
2019-03-03T04:41:09.147Z,11.35
2019-03-03T04:42:09.135Z,11.28
2019-03-03T04:43:09.134Z,11.21
2019-03-03T04:44:09.123Z,11.17
2019-03-03T04:47:49.824Z,11.15
2019-03-03T05:52:29.952Z,10.27
2019-03-03T05:53:29.949Z,10.33
2019-03-03T05:54:29.937Z,10.23
2019-03-03T05:55:29.933Z,10.22
2019-03-03T07:31:28.923Z,9.86
2019-03-03T07:32:28.920Z,9.87
2019-03-03T07:33:28.914Z,9.86
2019-03-03T07:34:28.917Z,9.86
2019-03-03T07:35:28.893Z,9.89
2019-03-03T07:36:28.888Z,9.93
2019-03-03T07:37:28.879Z,9.90
2019-03-03T07:38:28.873Z,9.94
2019-03-03T07:39:28.864Z,9.86
2019-03-03T07:40:28.858Z,9.91
2019-03-03T07:41:28.849Z,9.87
2019-03-03T08:05:57.950Z,10.07
2019-03-03T08:06:57.928Z,10.07
2019-03-03T08:07:57.918Z,10.04
2019-03-03T08:08:57.915Z,10.11
2019-03-03T08:09:58.494Z,10.04
2019-03-03T08:10:57.899Z,10.08
2019-03-03T08:11:57.894Z,10.14
2019-03-03T08:12:57.885Z,10.08
2019-03-03T08:13:57.876Z,10.07
2019-03-03T08:14:57.876Z,10.11
2019-03-03T08:15:57.862Z,10.11
2019-03-03T08:16:57.856Z,10.12
2019-03-03T08:17:57.853Z,10.07
2019-03-03T08:18:57.847Z,10.05
2019-03-03T08:19:57.834Z,10.08
2019-03-03T08:20:57.827Z,10.07
2019-03-03T08:21:57.819Z,10.11
2019-03-03T08:22:57.814Z,10.17
2019-03-03T08:23:57.804Z,10.12
2019-03-03T08:24:57.799Z,10.23
2019-03-03T08:25:57.790Z,10.14
2019-03-03T08:26:57.787Z,10.27
2019-03-03T08:27:57.775Z,10.26
2019-03-03T08:28:57.771Z,10.20
2019-03-03T08:29:57.769Z,10.18
2019-03-03T08:30:57.759Z,10.17
2019-03-03T08:31:57.748Z,10.26
2019-03-03T08:32:57.742Z,10.25
2019-03-03T08:33:57.733Z,10.32
2019-03-03T08:34:57.729Z,10.25
2019-03-03T08:35:57.719Z,10.32
2019-03-03T08:36:57.713Z,10.29
2019-03-03T08:37:57.704Z,10.27
2019-03-03T08:38:57.701Z,10.30
2019-03-03T08:39:57.691Z,10.25
2019-03-03T08:40:57.685Z,10.33
2019-03-03T08:41:57.676Z,10.26
2019-03-03T08:42:57.671Z,10.32
2019-03-03T08:43:57.661Z,10.32
2019-03-03T08:44:57.658Z,10.32
2019-03-03T08:45:57.650Z,10.36
2019-03-03T08:46:57.643Z,10.44
2019-03-03T08:47:57.634Z,10.40
2019-03-03T08:48:57.629Z,10.41
2019-03-03T08:49:57.621Z,10.40
2019-03-03T08:50:57.615Z,10.42
2019-03-03T08:51:57.606Z,10.34
2019-03-03T08:52:57.601Z,10.41
2019-03-03T08:53:57.592Z,10.38
2019-03-03T08:55:00.002Z,10.40
2019-03-03T08:55:57.577Z,10.38
2019-03-03T08:56:57.573Z,10.42
2019-03-03T08:57:57.565Z,10.42
2019-03-03T08:58:57.560Z,10.44
2019-03-03T08:59:57.550Z,10.42
2019-03-03T09:00:57.545Z,10.51
2019-03-03T09:01:57.536Z,10.51
2019-03-03T09:02:57.531Z,10.47
2019-03-03T09:03:57.522Z,10.34
2019-03-03T09:04:57.518Z,10.40
2019-03-03T09:05:57.509Z,10.42
2019-03-03T09:06:57.503Z,10.42
2019-03-03T09:07:57.496Z,10.36
2019-03-03T09:08:57.492Z,10.48
2019-03-03T09:09:57.482Z,10.47
2019-03-03T09:12:47.343Z,10.40
2019-03-03T09:13:47.333Z,10.47
2019-03-03T09:14:47.323Z,10.45
2019-03-03T09:15:47.321Z,10.48
2019-03-03T09:16:48.361Z,10.44
2019-03-03T09:17:47.305Z,10.51
2019-03-03T09:18:47.295Z,10.52
2019-03-03T09:19:47.290Z,10.44
2019-03-03T09:20:47.285Z,10.41
2019-03-03T09:21:47.277Z,10.53
2019-03-03T09:22:47.269Z,10.55
2019-03-03T09:23:47.263Z,10.53
2019-03-03T09:24:47.255Z,10.52
2019-03-03T09:25:47.251Z,10.55
2019-03-03T09:26:47.240Z,10.44
2019-03-03T09:27:47.237Z,10.55
2019-03-03T09:28:47.227Z,10.60
2019-03-03T09:29:47.224Z,10.44
2019-03-03T09:30:47.213Z,10.51
2019-03-03T09:31:47.208Z,10.63
2019-03-03T09:32:47.199Z,10.56
2019-03-03T09:33:49.384Z,10.52
2019-03-03T09:34:47.189Z,10.55
2019-03-03T09:35:47.432Z,10.52
2019-03-03T09:36:47.175Z,10.60
2019-03-03T09:37:47.168Z,10.61
2019-03-03T09:38:47.158Z,10.60
2019-03-03T09:39:47.154Z,10.59
2019-03-03T09:40:47.147Z,10.56
2019-03-03T09:41:47.141Z,10.59
2019-03-03T09:42:47.131Z,10.63
2019-03-03T09:43:47.131Z,10.67
2019-03-03T09:44:47.130Z,10.63
2019-03-03T09:45:47.117Z,10.59
2019-03-03T09:46:47.104Z,10.60
2019-03-03T09:47:47.099Z,10.61
2019-03-03T09:48:47.090Z,10.63
2019-03-03T09:49:47.085Z,10.63
2019-03-03T09:50:47.077Z,10.63
2019-03-03T09:51:47.077Z,10.67
2019-03-03T09:52:47.082Z,10.59
2019-03-03T09:53:47.061Z,10.70
2019-03-03T09:54:47.049Z,10.66
2019-03-03T09:55:47.044Z,10.63
2019-03-03T09:56:47.035Z,10.76
2019-03-03T09:57:47.031Z,10.74
2019-03-03T09:58:47.021Z,10.71
2019-03-03T09:59:47.016Z,10.71
2019-03-03T10:00:47.008Z,10.79
2019-03-03T10:01:47.005Z,10.79
2019-03-03T10:02:46.994Z,10.84
2019-03-03T10:03:46.989Z,10.78
2019-03-03T10:04:46.981Z,10.78
2019-03-03T10:05:46.976Z,10.76
2019-03-03T10:06:46.967Z,10.78
2019-03-03T10:07:46.962Z,10.79
2019-03-03T10:08:46.954Z,10.78
2019-03-03T10:09:46.954Z,10.79
2019-03-03T10:10:46.940Z,10.84
2019-03-03T10:11:46.935Z,10.79
2019-03-03T10:12:46.928Z,10.79
2019-03-03T10:13:47.125Z,10.78
2019-03-03T10:16:04.388Z,10.84
2019-03-03T10:21:53.703Z,10.88
2019-03-03T10:22:53.397Z,10.91
2019-03-03T10:23:53.389Z,10.91
2019-03-03T10:24:53.432Z,10.97
2019-03-03T10:25:53.377Z,10.92
2019-03-03T10:26:53.371Z,10.92
2019-03-03T10:27:53.363Z,10.92
2019-03-03T10:28:53.359Z,10.89
2019-03-03T10:30:50.786Z,11.06
2019-03-03T10:31:50.782Z,10.99
2019-03-03T10:32:50.773Z,11.03
2019-03-03T10:33:50.771Z,10.97
2019-03-03T10:34:50.760Z,11.02
2019-03-03T10:35:50.755Z,10.96
2019-03-03T10:36:50.747Z,10.94
2019-03-03T10:37:50.742Z,10.99
2019-03-03T10:38:50.735Z,11.02
2019-03-03T10:39:50.730Z,11.07
2019-03-03T10:40:50.720Z,11.04
2019-03-03T10:41:50.720Z,11.00
2019-03-03T10:42:50.707Z,11.06
2019-03-03T10:43:50.702Z,11.10
2019-03-03T10:44:50.694Z,11.03
2019-03-03T10:45:50.689Z,11.14
2019-03-03T10:46:50.681Z,11.10
2019-03-03T10:47:50.676Z,11.11
2019-03-03T10:48:50.668Z,11.11
2019-03-03T10:49:50.667Z,11.15
2019-03-03T10:50:50.654Z,11.10
2019-03-03T10:51:50.649Z,11.15
2019-03-03T10:52:50.642Z,11.14
2019-03-03T10:53:50.637Z,11.15
2019-03-03T10:55:33.038Z,11.09
2019-03-03T10:56:33.051Z,11.15
2019-03-03T10:57:33.025Z,11.21
2019-03-03T10:58:33.021Z,11.24
2019-03-03T10:59:33.013Z,11.22
2019-03-03T11:00:33.010Z,11.21
2019-03-03T11:01:32.999Z,11.21
2019-03-03T11:02:32.999Z,11.29
2019-03-03T11:03:32.986Z,11.32
2019-03-03T11:04:32.984Z,11.29
2019-03-03T11:05:32.973Z,11.36
2019-03-03T11:06:32.969Z,11.36
2019-03-03T11:07:32.961Z,11.36
2019-03-03T11:08:32.957Z,11.32
2019-03-03T11:09:32.947Z,11.33
2019-03-03T11:10:32.943Z,11.33
2019-03-03T11:11:32.936Z,11.33
2019-03-03T11:12:33.012Z,11.33
2019-03-03T11:13:32.922Z,11.42
2019-03-03T11:14:32.919Z,11.28
2019-03-03T11:15:32.911Z,11.42
2019-03-03T11:16:32.906Z,11.37
2019-03-03T11:17:32.899Z,11.42
2019-03-03T11:18:32.893Z,11.47
2019-03-03T11:19:32.884Z,11.40
2019-03-03T11:20:32.887Z,11.40
2019-03-03T11:21:32.871Z,11.33
2019-03-03T11:22:32.867Z,11.51
2019-03-03T11:23:32.861Z,11.43
2019-03-03T11:24:32.855Z,11.37
2019-03-03T11:25:32.846Z,11.32
2019-03-03T11:26:33.143Z,11.36
2019-03-03T11:27:32.846Z,11.35
2019-03-03T11:28:32.992Z,11.29
2019-03-03T11:29:32.820Z,11.35
2019-03-03T11:31:25.256Z,11.37
2019-03-03T11:32:25.256Z,11.52
2019-03-03T11:33:25.230Z,11.39
2019-03-03T11:34:25.228Z,11.36
2019-03-03T11:35:25.218Z,11.36
2019-03-03T11:36:25.213Z,11.36
2019-03-03T11:37:25.206Z,11.39
2019-03-03T11:38:25.402Z,11.40
2019-03-03T11:39:25.221Z,11.47
2019-03-03T11:40:25.210Z,11.40
2019-03-03T11:44:35.944Z,11.44
2019-03-03T11:45:35.939Z,11.42
2019-03-03T11:46:35.932Z,11.47
2019-03-03T11:47:35.932Z,11.47
2019-03-03T11:48:35.932Z,11.51
2019-03-03T11:49:35.916Z,11.54
2019-03-03T11:50:35.907Z,11.58
2019-03-03T11:51:35.918Z,11.58
2019-03-03T11:52:35.893Z,11.57
2019-03-03T11:53:35.895Z,11.55
2019-03-03T11:54:35.884Z,11.57
2019-03-03T11:55:35.876Z,11.67
2019-03-03T11:56:36.169Z,11.60
2019-03-03T11:57:35.865Z,11.62
2019-03-03T11:58:35.857Z,11.58
2019-03-03T11:59:35.852Z,11.61
2019-03-03T12:12:07.941Z,11.94
2019-03-03T12:13:07.937Z,11.94
2019-03-03T12:14:07.929Z,11.88
2019-03-03T17:27:24.447Z,12.64
2019-03-03T17:28:24.440Z,12.57
2019-03-03T17:29:24.433Z,12.65
2019-03-03T17:30:24.431Z,12.70
2019-03-03T17:55:29.388Z,12.89
2019-03-03T17:56:29.385Z,12.89
2019-03-03T17:57:29.375Z,12.86
2019-03-03T17:58:29.374Z,12.92
2019-03-03T17:59:29.366Z,12.83
2019-03-03T18:00:29.369Z,12.86
2019-03-03T18:01:29.356Z,12.86
2019-03-03T18:02:29.352Z,12.90
2019-03-03T18:03:29.346Z,13.03
2019-03-03T18:04:29.342Z,12.95
2019-03-03T18:05:29.335Z,12.97
2019-03-03T18:06:38.381Z,13.01
2019-03-03T18:07:29.325Z,12.96
2019-03-03T18:08:29.322Z,13.05
2019-03-03T18:09:29.316Z,12.97
2019-03-03T18:10:29.313Z,12.95
2019-03-03T18:11:29.306Z,12.96
2019-03-03T18:12:29.302Z,12.97
2019-03-03T18:13:29.295Z,13.00
2019-03-03T18:14:29.294Z,12.93
2019-03-03T18:15:29.286Z,12.93
2019-03-03T18:16:29.283Z,13.00
2019-03-03T18:17:29.317Z,13.00
2019-03-03T18:18:29.273Z,12.97
2019-03-03T18:19:29.567Z,13.01
2019-03-03T18:20:29.263Z,13.03
2019-03-03T18:21:29.257Z,13.10
2019-03-03T18:22:29.255Z,13.11
2019-03-03T18:23:29.734Z,13.08
2019-03-03T18:24:29.245Z,13.07
2019-03-03T18:25:29.239Z,13.04
2019-03-03T18:26:29.234Z,13.04
2019-03-03T18:27:29.228Z,13.08
2019-03-03T18:28:29.226Z,13.04
2019-03-03T18:30:21.649Z,13.04
2019-03-03T18:31:21.644Z,13.10
2019-03-03T18:32:21.640Z,13.12
2019-03-03T18:33:21.641Z,13.07
2019-03-03T18:34:21.627Z,13.12
2019-03-03T18:35:21.627Z,13.10
2019-03-03T18:36:21.620Z,13.14
2019-03-03T18:37:21.617Z,13.04
2019-03-03T18:38:21.608Z,13.05
2019-03-03T18:39:21.606Z,13.05
2019-03-03T18:40:21.599Z,13.11
2019-03-03T18:41:21.595Z,13.11
2019-03-03T18:42:21.589Z,13.08
2019-03-03T18:43:21.587Z,13.08
2019-03-03T18:44:21.582Z,13.10
2019-03-03T18:45:21.576Z,13.03
2019-03-03T18:46:21.570Z,13.08
2019-03-03T18:47:21.618Z,13.11
2019-03-03T18:48:21.561Z,13.10
2019-03-03T18:49:21.559Z,13.08
2019-03-03T18:50:21.552Z,13.14
2019-03-03T18:51:21.548Z,13.12
2019-03-03T18:52:21.541Z,13.10
2019-03-03T18:53:21.539Z,13.12
2019-03-03T18:54:21.532Z,13.08
2019-03-03T18:55:21.531Z,13.10
2019-03-03T18:56:21.523Z,13.15
2019-03-03T18:57:21.520Z,13.11
2019-03-03T18:58:21.513Z,13.10
2019-03-03T18:59:21.511Z,13.08
2019-03-03T19:00:22.543Z,13.08
2019-03-03T19:01:21.504Z,13.10
2019-03-03T19:02:21.495Z,13.07
2019-03-03T19:03:21.732Z,13.15
2019-03-03T19:04:21.486Z,13.19
2019-03-03T19:05:21.487Z,13.08
2019-03-03T19:07:21.471Z,13.11
2019-03-03T19:08:21.471Z,13.11
2019-03-03T19:09:21.462Z,13.08
2019-03-03T19:10:21.508Z,13.15
2019-03-03T19:11:21.453Z,13.17
2019-03-03T19:12:21.452Z,13.10
2019-03-03T19:13:21.448Z,13.07
2019-03-03T19:14:27.964Z,13.05
2019-03-03T19:15:21.440Z,13.07
2019-03-03T19:16:21.433Z,13.07
2019-03-03T19:17:21.426Z,13.04
2019-03-03T19:18:21.423Z,13.20
2019-03-03T19:28:50.233Z,13.10
2019-03-03T19:29:50.219Z,13.11
2019-03-03T19:30:50.222Z,13.11
2019-03-03T19:31:50.208Z,13.11
2019-03-03T19:32:50.207Z,13.12
2019-03-03T19:33:50.199Z,13.23
2019-03-03T19:34:50.193Z,13.23
2019-03-03T21:00:09.766Z,13.05
2019-03-03T21:01:09.764Z,13.14
2019-03-03T21:02:09.761Z,13.04
2019-03-03T21:03:09.753Z,13.14
2019-03-03T21:04:09.752Z,13.15
2019-03-03T21:05:09.745Z,13.17
2019-03-03T21:06:09.739Z,13.05
2019-03-03T21:07:09.735Z,13.15
2019-03-03T21:08:09.728Z,13.05
2019-03-03T21:09:09.731Z,13.17
2019-03-03T21:10:09.718Z,13.19
2019-03-03T21:11:09.716Z,13.11
2019-03-03T21:12:09.760Z,13.07
2019-03-03T21:13:09.706Z,13.11
2019-03-03T21:14:09.700Z,13.07
2019-03-03T21:15:09.698Z,13.07
2019-03-03T21:16:09.692Z,13.05
2019-03-03T21:17:09.700Z,13.10
2019-03-03T21:18:09.682Z,13.12
2019-03-03T21:19:09.678Z,13.07
2019-03-03T21:20:09.672Z,13.14
2019-03-03T21:21:09.669Z,13.17
2019-03-03T21:22:09.662Z,13.03
2019-03-03T21:23:09.660Z,13.17
2019-03-03T21:24:09.654Z,13.12
2019-03-03T21:25:09.650Z,13.04
2019-03-03T21:26:09.644Z,13.19
2019-03-03T21:27:09.640Z,13.19
2019-03-03T21:28:09.634Z,13.22
2019-03-03T21:29:09.632Z,13.17
2019-03-03T21:30:09.624Z,13.15
2019-03-03T21:31:09.622Z,13.10
2019-03-03T21:32:09.615Z,13.14
2019-03-03T21:33:09.613Z,13.17
2019-03-03T21:34:09.605Z,13.20
2019-03-03T21:35:09.604Z,13.14
2019-03-03T21:36:09.596Z,13.19
2019-03-03T21:37:09.593Z,13.22
2019-03-03T21:38:09.586Z,13.23
2019-03-03T21:39:09.584Z,13.22
2019-03-03T21:40:09.580Z,13.22
2019-03-03T21:41:09.574Z,13.22
2019-03-03T21:42:09.568Z,13.25
2019-03-03T21:43:09.567Z,13.30
2019-03-03T21:44:09.563Z,13.22
2019-03-03T21:45:09.557Z,13.22
2019-03-03T21:46:09.552Z,13.22
2019-03-03T21:47:09.548Z,13.25
2019-03-03T21:48:09.541Z,13.20
2019-03-03T21:49:09.537Z,13.23
2019-03-03T21:50:09.530Z,13.14
2019-03-03T21:51:09.529Z,13.20
2019-03-03T21:52:09.524Z,13.15
2019-03-03T21:53:09.519Z,13.14
2019-03-03T21:54:09.514Z,13.08
2019-03-03T21:55:09.511Z,13.04
2019-03-03T21:56:09.504Z,13.11
2019-03-03T21:57:09.501Z,13.12
2019-03-03T21:58:09.494Z,13.07
2019-03-03T21:59:09.492Z,13.15
2019-03-03T22:00:09.487Z,13.03
2019-03-03T22:01:09.486Z,13.14
2019-03-03T22:02:09.476Z,13.17
2019-03-03T22:03:09.476Z,13.22
2019-03-03T22:04:09.467Z,13.14
2019-03-03T22:24:47.893Z,13.14
2019-03-03T22:25:47.892Z,13.17
2019-03-03T22:26:47.883Z,13.12
2019-03-03T22:34:05.161Z,13.19
2019-03-03T22:36:17.622Z,13.05
2019-03-03T22:37:17.617Z,13.05
2019-03-03T22:38:17.611Z,13.11
2019-03-03T22:39:17.608Z,13.07
2019-03-03T22:40:17.603Z,13.15
2019-03-03T22:41:17.598Z,13.17
2019-03-03T23:33:31.726Z,13.33
2019-03-03T23:34:31.719Z,13.45
2019-03-03T23:35:31.712Z,13.49
2019-03-03T23:36:31.711Z,13.46
2019-03-03T23:37:31.703Z,13.46
2019-03-03T23:38:31.711Z,13.48
2019-03-03T23:39:31.695Z,13.52
2019-03-03T23:40:31.692Z,13.60
2019-03-03T23:41:31.687Z,13.62
2019-03-03T23:42:31.684Z,13.63
2019-03-03T23:43:31.677Z,13.62
2019-03-03T23:44:31.675Z,13.62
2019-03-03T23:45:31.668Z,13.62
2019-03-03T23:46:31.670Z,13.60
2019-03-03T23:47:31.661Z,13.57
2019-03-03T23:48:31.657Z,13.64
2019-03-03T23:49:31.650Z,13.64
2019-03-03T23:50:31.648Z,13.69
2019-03-03T23:51:31.642Z,13.59
2019-03-03T23:52:31.640Z,13.70
2019-03-03T23:53:31.633Z,13.71
2019-03-03T23:54:31.631Z,13.69
2019-03-03T23:55:31.628Z,13.67
2019-03-03T23:56:31.622Z,13.63
2019-03-03T23:57:31.621Z,13.69
2019-03-03T23:58:31.614Z,13.69
2019-03-03T23:59:31.612Z,13.78
